Time;durP1;ratioP1;P1;durP2;ratioP2;P2;SDS_P1;SDS_P2;PMS_P1;PMS_P2;Temp;Humidity;BMP_temperature;BMP_pressure;BME280_temperature;BME280_humidity;BME280_pressure;Samples;Min_cycle;Max_cycle;Signal;HPM_P1;HPM_P2
2022/03/22 00:01:30;;;;;;;20.90;11.70;;;10.30;96.80;;;;;;5014492;28;20107;-88
2022/03/22 00:03:56;;;;;;;23.50;12.25;;;;;;;;;;5013852;28;20021;-86
2022/03/22 00:06:22;;;;;;;17.58;10.68;;;10.20;97.10;;;;;;5027957;28;20026;-89
2022/03/22 00:08:48;;;;;;;18.63;11.02;;;;;;;;;;5016680;28;20026;-89
2022/03/22 00:11:14;;;;;;;19.70;11.80;;;10.20;97.70;;;;;;5019240;28;20033;-85
2022/03/22 00:13:42;;;;;;;19.23;10.38;;;10.20;98.20;;;;;;5032376;28;20569;-89
2022/03/22 00:16:08;;;;;;;19.20;10.75;;;;;;;;;;5012957;28;20032;-90
2022/03/22 00:18:35;;;;;;;17.52;10.18;;;10.10;98.40;;;;;;5009077;28;20034;-87
2022/03/22 00:21:01;;;;;;;18.80;10.15;;;10.20;98.90;;;;;;5013940;28;20060;-89
2022/03/22 00:23:28;;;;;;;15.93;10.25;;;10.20;99.10;;;;;;5015633;28;20029;-89
2022/03/22 00:25:54;;;;;;;19.50;10.10;;;10.20;99.20;;;;;;5018547;28;20029;-90
2022/03/22 00:28:21;;;;;;;17.67;10.32;;;10.20;99.90;;;;;;5014739;28;20044;-89
2022/03/22 00:30:46;;;;;;;21.77;11.57;;;10.00;99.80;;;;;;5020853;28;20213;-90
2022/03/22 00:33:12;;;;;;;16.77;10.25;;;;;;;;;;5021362;28;20057;-88
2022/03/22 00:35:40;;;;;;;16.00;10.27;;;9.90;99.90;;;;;;5025375;28;20026;-88
2022/03/22 00:38:12;;;;;;;18.15;10.43;;;9.90;99.90;;;;;;5023423;28;20029;-86
2022/03/22 00:40:39;;;;;;;19.75;10.68;;;11.50;99.90;;;;;;5017017;28;20064;-90
2022/03/22 00:43:05;;;;;;;24.00;10.80;;;10.90;99.90;;;;;;5035912;28;20029;-89
2022/03/22 00:45:37;;;;;;;19.35;10.40;;;10.70;99.90;;;;;;5017941;28;20026;-87
2022/03/22 00:48:09;;;;;;;17.63;10.40;;;9.60;99.90;;;;;;5022946;28;20030;-90
2022/03/22 00:50:38;;;;;;;17.20;10.70;;;9.60;99.90;;;;;;5033929;28;20017;-89
2022/03/22 00:53:07;;;;;;;18.80;10.63;;;9.60;99.90;;;;;;5033237;28;20123;-85
2022/03/22 00:55:33;;;;;;;17.23;9.88;;;8.40;99.90;;;;;;5021462;28;20043;-85
2022/03/22 00:57:59;;;;;;;20.58;10.95;;;10.00;99.90;;;;;;5026156;28;20061;-88
2022/03/22 01:00:28;;;;;;;18.30;10.10;;;9.60;99.90;;;;;;5030738;28;20486;-87
2022/03/22 01:02:57;;;;;;;22.60;12.13;;;9.30;99.90;;;;;;5005906;28;20033;-88
2022/03/22 01:05:23;;;;;;;19.40;11.40;;;9.10;99.90;;;;;;5022223;28;20494;-85
2022/03/22 01:07:54;;;;;;;18.20;10.35;;;10.60;99.90;;;;;;5032699;28;20560;-86
2022/03/22 01:10:22;;;;;;;18.92;10.38;;;9.30;99.90;;;;;;5016838;28;20029;-89
2022/03/22 01:12:48;;;;;;;16.50;10.82;;;9.20;99.90;;;;;;5016923;28;20147;-85
2022/03/22 01:15:18;;;;;;;18.05;11.55;;;7.00;99.90;;;;;;5014696;28;20029;-89
2022/03/22 01:17:50;;;;;;;17.90;11.10;;;9.10;99.90;;;;;;5034290;28;20089;-88
2022/03/22 01:20:16;;;;;;;20.23;11.60;;;9.10;99.90;;;;;;5039511;28;20044;-87
2022/03/22 01:22:45;;;;;;;20.23;11.05;;;10.40;99.90;;;;;;5018205;28;20036;-88
2022/03/22 01:25:19;;;;;;;18.67;11.95;;;8.80;99.90;;;;;;4996397;28;20033;-87
2022/03/22 01:27:47;;;;;;;18.33;10.60;;;9.00;99.90;;;;;;5015972;28;20113;-90
2022/03/22 01:30:15;;;;;;;20.45;11.38;;;10.90;99.90;;;;;;5034686;28;20026;-86
2022/03/22 01:32:42;;;;;;;17.23;10.95;;;11.00;99.90;;;;;;5017841;28;20051;-88
2022/03/22 01:35:11;;;;;;;19.50;11.60;;;8.80;99.90;;;;;;5035739;28;20041;-87
2022/03/22 01:37:38;;;;;;;18.40;11.20;;;8.70;99.90;;;;;;5021345;28;20037;-88
2022/03/22 01:40:06;;;;;;;17.80;11.07;;;10.20;99.90;;;;;;5030345;28;20030;-87
2022/03/22 01:42:32;;;;;;;19.17;11.27;;;8.80;99.90;;;;;;5034813;28;21244;-89
2022/03/22 01:44:58;;;;;;;17.67;10.48;;;11.40;99.90;;;;;;5017447;28;20018;-90
2022/03/22 01:47:24;;;;;;;15.73;10.80;;;;;;;;;;5029389;28;20033;-88
2022/03/22 01:49:51;;;;;;;18.13;11.43;;;8.70;99.90;;;;;;5017616;28;20033;-88
2022/03/22 01:52:19;;;;;;;16.55;10.45;;;9.10;99.90;;;;;;5016050;28;20050;-86
2022/03/22 01:54:50;;;;;;;19.52;10.43;;;8.70;99.90;;;;;;5014147;28;20029;-86
2022/03/22 01:57:23;;;;;;;19.38;11.57;;;8.60;99.90;;;;;;5012670;28;20589;-88
2022/03/22 01:59:50;;;;;;;16.92;11.15;;;8.60;99.90;;;;;;5012543;28;20036;-85
2022/03/22 02:07:48;;;;;;;21.42;11.30;;;11.10;99.90;;;;;;5017370;28;20056;-88
2022/03/22 02:10:15;;;;;;;19.92;10.70;;;8.50;99.90;;;;;;5016089;28;20029;-88
2022/03/22 02:12:47;;;;;;;17.77;12.10;;;9.70;99.90;;;;;;5018226;28;20026;-88
2022/03/22 02:15:13;;;;;;;19.13;10.70;;;10.30;99.90;;;;;;5016393;28;20468;-87
2022/03/22 02:17:41;;;;;;;17.42;11.35;;;8.30;99.90;;;;;;5036536;28;20045;-87
2022/03/22 02:20:07;;;;;;;19.35;11.18;;;6.80;99.90;;;;;;5039543;28;20049;-85
2022/03/22 02:22:40;;;;;;;24.02;11.80;;;8.20;99.90;;;;;;5034583;28;20029;-86
2022/03/22 02:25:15;;;;;;;23.15;11.75;;;8.20;99.90;;;;;;5024507;28;20026;-85
2022/03/22 02:27:43;;;;;;;19.65;11.95;;;;;;;;;;5040334;28;20087;-85
2022/03/22 02:30:13;;;;;;;19.27;11.43;;;8.10;99.90;;;;;;5036993;28;20048;-89
2022/03/22 02:32:39;;;;;;;19.27;11.68;;;8.10;99.90;;;;;;5021887;28;20025;-88
2022/03/22 02:35:06;;;;;;;24.00;12.77;;;8.00;99.90;;;;;;5018534;28;20044;-85
2022/03/22 02:37:31;;;;;;;20.25;11.63;;;8.00;99.90;;;;;;5025489;28;20033;-88
2022/03/22 02:39:57;;;;;;;22.25;11.88;;;8.10;99.90;;;;;;5023670;28;20210;-87
2022/03/22 02:42:23;;;;;;;20.10;11.63;;;9.50;99.90;;;;;;5022093;28;20026;-88
2022/03/22 02:44:48;;;;;;;23.15;11.90;;;7.70;99.90;;;;;;5009891;28;20083;-89
2022/03/22 02:47:14;;;;;;;21.98;12.15;;;8.60;99.90;;;;;;5020470;28;20043;-87
2022/03/22 02:49:40;;;;;;;20.42;12.23;;;;;;;;;;5029610;28;20029;-85
2022/03/22 02:52:06;;;;;;;20.88;11.70;;;7.80;99.90;;;;;;5025513;28;20093;-86
2022/03/22 02:54:32;;;;;;;19.98;12.68;;;;;;;;;;5023352;28;20060;-88
2022/03/22 02:56:59;;;;;;;21.40;12.63;;;;;;;;;;5035737;28;20037;-88
2022/03/22 02:59:24;;;;;;;23.60;12.57;;;7.80;99.90;;;;;;5024812;28;20073;-86
2022/03/22 03:01:51;;;;;;;18.35;12.55;;;;;;;;;;5028258;28;20028;-89
2022/03/22 03:04:17;;;;;;;23.48;12.70;;;;;;;;;;5036697;28;20033;-87
2022/03/22 03:06:42;;;;;;;23.05;12.48;;;7.70;99.90;;;;;;5019705;28;20026;-87
2022/03/22 03:09:08;;;;;;;24.23;13.50;;;9.40;99.90;;;;;;5038889;28;20034;-87
2022/03/22 03:11:34;;;;;;;23.15;12.63;;;;;;;;;;5024161;28;20033;-87
2022/03/22 03:15:01;;;;;;;19.63;12.80;;;;;;;;;;5041456;28;20029;-86
2022/03/22 03:16:56;;;;;;;24.83;13.38;;;;;;;;;;5017936;28;20029;-87
2022/03/22 03:19:22;;;;;;;21.67;13.05;;;;;;;;;;5023177;28;20029;-86
2022/03/22 03:21:48;;;;;;;22.77;13.18;;;;;;;;;;5034203;28;20060;-89
2022/03/22 03:24:13;;;;;;;23.48;12.45;;;7.40;99.90;;;;;;5030261;28;20060;-87
2022/03/22 03:26:39;;;;;;;22.73;13.25;;;7.30;99.90;;;;;;5026119;28;20041;-88
2022/03/22 03:29:05;;;;;;;20.60;12.05;;;;;;;;;;5016496;28;20026;-84
2022/03/22 03:31:31;;;;;;;21.38;14.00;;;;;;;;;;5034886;28;20048;-88
2022/03/22 03:33:58;;;;;;;23.27;13.05;;;;;;;;;;5021170;28;20021;-88
2022/03/22 03:36:24;;;;;;;22.75;13.18;;;;;;;;;;5040474;28;20025;-86
2022/03/22 03:38:50;;;;;;;21.33;12.43;;;;;;;;;;5018981;28;20029;-88
2022/03/22 03:47:03;;;;;;;22.92;11.90;;;6.50;99.90;;;;;;5040548;28;20040;-89
2022/03/22 03:47:07;;;;;;;23.42;12.98;;;;;;;;;;5036900;28;20033;-89
2022/03/22 03:49:43;;;;;;;20.08;12.13;;;7.00;99.90;;;;;;5021167;28;20057;-89
2022/03/22 03:52:17;;;;;;;28.85;15.55;;;7.10;99.90;;;;;;5023741;28;20025;-84
2022/03/22 03:54:43;;;;;;;24.55;13.32;;;6.90;99.90;;;;;;5039028;28;20036;-89
2022/03/22 03:57:09;;;;;;;29.52;13.25;;;;;;;;;;5025132;28;20055;-85
2022/03/22 03:59:36;;;;;;;19.02;12.30;;;;;;;;;;5024068;28;20033;-88
2022/03/22 04:02:03;;;;;;;23.70;13.13;;;6.90;99.90;;;;;;5024199;28;20437;-85
2022/03/22 04:04:30;;;;;;;23.60;12.75;;;;;;;;;;5040211;28;20033;-90
2022/03/22 04:06:56;;;;;;;21.15;12.88;;;6.90;99.90;;;;;;5040999;28;20033;-87
2022/03/22 04:09:22;;;;;;;23.48;12.85;;;;;;;;;;5026427;28;20034;-87
2022/03/22 04:11:49;;;;;;;23.38;12.77;;;6.80;99.90;;;;;;5025013;28;20028;-86
2022/03/22 04:14:16;;;;;;;25.27;12.35;;;;;;;;;;5027328;28;20034;-88
2022/03/22 04:16:42;;;;;;;23.02;12.10;;;6.80;99.90;;;;;;5024632;28;20037;-88
2022/03/22 04:19:09;;;;;;;19.60;11.77;;;7.80;99.90;;;;;;5037026;28;20026;-88
2022/03/22 04:21:36;;;;;;;22.42;13.00;;;6.70;99.90;;;;;;5025522;28;20656;-89
2022/03/22 04:24:07;;;;;;;21.50;12.25;;;9.30;99.90;;;;;;5007541;28;20026;-86
2022/03/22 04:26:38;;;;;;;24.30;12.18;;;7.40;99.90;;;;;;5045949;28;20121;-88
2022/03/22 04:34:33;;;;;;;25.35;12.60;;;;;;;;;;5042087;28;20037;-89
2022/03/22 04:37:00;;;;;;;22.98;12.45;;;6.50;99.90;;;;;;5024019;28;20056;-90
2022/03/22 04:39:28;;;;;;;22.35;12.45;;;6.40;99.90;;;;;;5025097;28;21135;-88
2022/03/22 04:41:55;;;;;;;25.15;12.98;;;;;;;;;;5021430;28;20025;-89
2022/03/22 04:44:21;;;;;;;20.40;12.35;;;6.40;99.90;;;;;;5023413;28;20068;-84
2022/03/22 04:46:47;;;;;;;20.50;12.15;;;6.40;99.90;;;;;;5030198;28;20025;-89
2022/03/22 04:49:13;;;;;;;22.15;12.50;;;;;;;;;;5020451;28;20093;-89
2022/03/22 04:57:09;;;;;;;21.00;12.68;;;;;;;;;;5028795;28;20045;-86
2022/03/22 04:59:35;;;;;;;23.50;12.75;;;;;;;;;;5022361;28;20034;-87
2022/03/22 05:02:01;;;;;;;22.10;13.10;;;;;;;;;;5039821;28;20394;-86
2022/03/22 05:04:27;;;;;;;20.80;11.75;;;;;;;;;;5020545;28;20022;-89
2022/03/22 05:06:54;;;;;;;23.58;12.77;;;;;;;;;;5006163;28;20026;-88
2022/03/22 05:09:20;;;;;;;21.52;12.25;;;;;;;;;;5039382;28;20030;-86
2022/03/22 05:11:46;;;;;;;18.33;11.48;;;;;;;;;;5026837;28;20055;-87
2022/03/22 05:14:12;;;;;;;22.98;12.82;;;;;;;;;;5042057;28;20021;-86
2022/03/22 05:16:39;;;;;;;21.63;12.88;;;;;;;;;;5038163;28;20026;-86
2022/03/22 05:19:04;;;;;;;20.95;11.10;;;6.10;99.90;;;;;;5046369;28;20206;-89
2022/03/22 05:21:31;;;;;;;21.15;11.88;;;7.20;99.90;;;;;;5034748;28;20026;-86
2022/03/22 05:23:57;;;;;;;24.67;12.45;;;;;;;;;;5027177;28;20018;-88
2022/03/22 05:26:25;;;;;;;21.10;11.85;;;;;;;;;;5027713;28;20026;-86
2022/03/22 05:28:51;;;;;;;23.90;13.00;;;6.00;99.90;;;;;;5036738;28;20030;-86
2022/03/22 05:31:18;;;;;;;20.63;11.40;;;5.90;99.90;;;;;;5019882;28;20048;-86
2022/03/22 05:33:44;;;;;;;18.52;11.35;;;;;;;;;;5037179;28;20025;-87
2022/03/22 05:36:11;;;;;;;19.90;12.68;;;;;;;;;;5034618;28;20021;-86
2022/03/22 05:38:37;;;;;;;22.90;12.88;;;5.90;99.90;;;;;;5029622;28;20128;-85
2022/03/22 05:41:03;;;;;;;22.63;12.40;;;;;;;;;;5028115;28;20569;-87
2022/03/22 05:43:30;;;;;;;19.75;11.73;;;5.90;99.90;;;;;;5022966;28;20026;-87
2022/03/22 05:45:56;;;;;;;20.73;11.70;;;;;;;;;;5023122;28;20122;-86
2022/03/22 05:48:23;;;;;;;20.63;12.68;;;5.90;99.90;;;;;;5037476;28;20025;-86
2022/03/22 05:50:49;;;;;;;24.63;13.45;;;;;;;;;;5036817;28;20116;-87
2022/03/22 05:53:15;;;;;;;23.02;13.63;;;5.90;99.90;;;;;;5025893;28;20039;-86
2022/03/22 05:55:41;;;;;;;29.80;15.10;;;6.40;99.90;;;;;;5027845;28;20092;-88
2022/03/22 05:58:08;;;;;;;24.30;13.35;;;8.50;99.90;;;;;;5031093;28;20057;-89
2022/03/22 06:00:34;;;;;;;21.70;13.18;;;5.80;99.90;;;;;;5027000;28;20033;-89
2022/03/22 06:03:00;;;;;;;20.15;13.02;;;;;;;;;;5030315;28;20056;-89
2022/03/22 06:05:28;;;;;;;31.08;14.05;;;5.70;99.90;;;;;;5053606;28;20025;-88
2022/03/22 06:07:55;;;;;;;22.05;12.48;;;;;;;;;;5042035;28;20031;-88
2022/03/22 06:10:21;;;;;;;28.60;13.77;;;;;;;;;;5054738;28;20029;-89
2022/03/22 06:12:57;;;;;;;26.35;13.48;;;5.70;99.90;;;;;;5038512;28;20057;-88
2022/03/22 06:15:27;;;;;;;24.55;13.35;;;6.90;99.90;;;;;;5045325;28;20036;-91
2022/03/22 06:17:56;;;;;;;27.35;12.85;;;6.10;99.90;;;;;;5021652;28;20033;-89
2022/03/22 06:20:24;;;;;;;27.10;13.80;;;5.80;99.90;;;;;;5049874;28;20056;-89
2022/03/22 06:22:51;;;;;;;22.50;12.80;;;8.00;99.90;;;;;;5012445;28;20035;-90
2022/03/22 06:25:18;;;;;;;29.60;13.95;;;7.30;99.90;;;;;;5033198;28;20017;-88
2022/03/22 06:27:46;;;;;;;232.40;115.88;;;5.90;99.90;;;;;;5016096;28;20093;-86
2022/03/22 06:30:18;;;;;;;26.42;13.70;;;7.70;99.90;;;;;;5033588;28;20870;-90
2022/03/22 06:32:54;;;;;;;24.30;12.40;;;5.90;99.90;;;;;;5048793;28;20093;-87
2022/03/22 06:35:29;;;;;;;23.83;11.80;;;7.40;99.90;;;;;;5018689;28;20021;-88
2022/03/22 06:37:55;;;;;;;30.08;13.43;;;;;;;;;;5043582;28;20037;-86
2022/03/22 06:40:23;;;;;;;26.33;12.85;;;6.30;99.90;;;;;;5034704;28;20022;-86
2022/03/22 06:42:49;;;;;;;24.80;13.57;;;6.40;99.90;;;;;;5014126;28;20022;-87
2022/03/22 06:45:16;;;;;;;25.60;13.70;;;6.00;99.90;;;;;;5026601;28;20079;-87
2022/03/22 06:47:51;;;;;;;32.47;19.15;;;6.60;99.90;;;;;;5033717;28;20124;-88
2022/03/22 06:50:19;;;;;;;28.23;13.50;;;6.70;99.90;;;;;;5042639;28;20033;-87
2022/03/22 06:52:46;;;;;;;21.05;13.00;;;5.80;99.90;;;;;;5006877;28;20484;-87
2022/03/22 06:55:22;;;;;;;24.75;13.93;;;6.90;99.90;;;;;;4993164;28;20030;-89
2022/03/22 06:57:53;;;;;;;134.75;20.08;;;6.90;99.90;;;;;;5024867;28;20029;-86
2022/03/22 07:00:28;;;;;;;26.63;14.05;;;7.80;99.90;;;;;;5026272;28;20483;-88
2022/03/22 07:03:15;;;;;;;26.35;14.85;;;7.10;99.90;;;;;;5023256;28;20029;-87
2022/03/22 07:05:44;;;;;;;30.33;14.40;;;;;;;;;;5027228;28;20034;-87
2022/03/22 07:08:15;;;;;;;24.73;13.98;;;7.50;99.90;;;;;;5026159;28;20025;-90
2022/03/22 07:11:47;;;;;;;23.95;13.40;;;7.30;99.90;;;;;;5028367;28;20032;-85
2022/03/22 07:13:32;;;;;;;27.95;13.80;;;;;;;;;;5041982;28;20171;-88
2022/03/22 07:15:59;;;;;;;29.45;13.02;;;;;;;;;;5043204;28;20033;-86
2022/03/22 07:18:25;;;;;;;24.17;13.88;;;;;;;;;;5042820;28;20037;-87
2022/03/22 07:20:51;;;;;;;26.60;13.52;;;;;;;;;;5041409;28;20365;-87
2022/03/22 07:23:17;;;;;;;23.92;14.02;;;;;;;;;;5048869;28;20029;-88
2022/03/22 07:25:44;;;;;;;21.98;13.73;;;8.40;99.90;;;;;;5025461;28;20048;-86
2022/03/22 07:28:11;;;;;;;26.80;14.25;;;9.60;99.90;;;;;;5023224;28;20053;-89
2022/03/22 07:30:37;;;;;;;26.48;13.95;;;8.20;99.90;;;;;;5026236;28;20033;-88
2022/03/22 07:33:22;;;;;;;21.83;13.52;;;8.30;99.90;;;;;;5044364;28;20167;-89
2022/03/22 07:35:48;;;;;;;24.65;13.73;;;7.40;99.90;;;;;;5042650;28;20021;-88
2022/03/22 07:38:13;;;;;;;24.15;13.93;;;8.60;99.90;;;;;;5042429;28;20478;-87
2022/03/22 07:40:39;;;;;;;26.45;15.10;;;10.00;99.90;;;;;;5025811;28;20033;-87
2022/03/22 07:43:05;;;;;;;32.65;14.55;;;;;;;;;;5038754;28;20097;-87
2022/03/22 07:45:31;;;;;;;21.65;14.45;;;9.00;99.90;;;;;;5021197;28;20037;-85
2022/03/22 07:47:57;;;;;;;24.38;13.85;;;;;;;;;;5022804;28;20025;-89
2022/03/22 07:53:07;;;;;;;23.40;14.43;;;9.40;98.80;;;;;;5046481;28;20057;-87
2022/03/22 07:55:39;;;;;;;23.23;14.40;;;10.00;98.30;;;;;;5043052;28;20030;-85
2022/03/22 07:58:06;;;;;;;25.33;15.27;;;9.60;97.50;;;;;;5042127;28;20061;-89
2022/03/22 08:00:35;;;;;;;25.27;14.35;;;12.00;98.00;;;;;;5004622;28;20064;-87
2022/03/22 08:03:10;;;;;;;24.55;14.35;;;9.90;96.70;;;;;;5006147;28;20505;-89
2022/03/22 08:05:39;;;;;;;23.10;13.73;;;9.50;95.80;;;;;;5019946;28;20210;-87
2022/03/22 08:08:06;;;;;;;25.65;14.35;;;10.30;94.90;;;;;;5019860;28;20025;-89
2022/03/22 08:10:33;;;;;;;24.83;14.25;;;10.30;94.40;;;;;;5021562;28;20026;-89
2022/03/22 08:13:00;;;;;;;23.05;14.07;;;10.40;94.10;;;;;;5025407;28;20025;-90
2022/03/22 08:15:26;;;;;;;24.40;14.05;;;10.70;92.80;;;;;;5020766;28;20053;-88
2022/03/22 08:17:51;;;;;;;25.13;13.95;;;12.00;92.30;;;;;;5019709;28;20037;-89
2022/03/22 08:20:17;;;;;;;24.63;14.38;;;10.90;91.20;;;;;;5017430;28;20540;-87
2022/03/22 08:22:51;;;;;;;25.45;13.90;;;10.90;90.80;;;;;;5021267;28;20168;-87
2022/03/22 08:25:32;;;;;;;25.08;13.90;;;11.20;88.50;;;;;;5040007;28;20033;-88
2022/03/22 08:28:00;;;;;;;21.70;13.75;;;11.30;86.80;;;;;;5034770;28;20041;-89
2022/03/22 08:30:27;;;;;;;22.10;13.75;;;11.50;86.00;;;;;;5018121;28;20057;-88
2022/03/22 08:32:55;;;;;;;24.27;14.05;;;11.80;83.70;;;;;;5017941;28;20569;-87
2022/03/22 08:35:25;;;;;;;28.80;14.48;;;11.60;83.00;;;;;;5030052;28;20030;-89
2022/03/22 08:37:57;;;;;;;22.98;13.40;;;11.40;81.90;;;;;;5037430;28;20041;-91
2022/03/22 08:40:23;;;;;;;22.10;13.55;;;11.60;81.40;;;;;;5022097;28;20029;-87
2022/03/22 08:42:52;;;;;;;22.38;13.82;;;11.70;79.80;;;;;;5018226;28;20093;-88
2022/03/22 08:45:22;;;;;;;32.08;13.60;;;11.80;79.60;;;;;;5041523;28;20093;-86
2022/03/22 08:47:50;;;;;;;21.45;14.15;;;14.00;81.30;;;;;;5022540;28;20148;-89
2022/03/22 08:50:18;;;;;;;21.02;13.00;;;12.10;78.20;;;;;;5009020;28;20301;-88
2022/03/22 08:52:59;;;;;;;20.65;13.23;;;12.10;75.00;;;;;;5079523;22;20034;-82
2022/03/22 08:56:07;;;;;;;21.50;12.80;;;11.90;75.00;;;;;;5024624;28;20038;-82
2022/03/22 09:08:38;;;;;;;21.25;12.90;;;12.30;70.50;;;;;;5042108;28;20010;-81
2022/03/22 09:11:48;;;;;;;20.60;12.98;;;13.30;70.90;;;;;;5036732;28;20037;-81
2022/03/22 09:17:54;;;;;;;20.77;12.80;;;11.20;67.40;;;;;;5039529;28;20690;-82
2022/03/22 09:20:44;;;;;;;20.45;12.82;;;13.50;66.70;;;;;;5022509;28;20030;-81
2022/03/22 09:23:26;;;;;;;20.35;13.23;;;13.50;66.20;;;;;;5025696;28;20025;-81
2022/03/22 09:29:26;;;;;;;18.95;11.95;;;13.80;67.50;;;;;;5033769;28;20037;-82
2022/03/22 09:32:02;;;;;;;18.73;12.00;;;12.50;65.70;;;;;;5023643;28;20397;-82
2022/03/22 09:34:33;;;;;;;17.63;12.18;;;13.90;64.70;;;;;;5039264;28;20040;-82
2022/03/22 09:37:25;;;;;;;23.70;12.27;;;13.90;64.90;;;;;;5046345;28;20040;-82
2022/03/22 09:39:57;;;;;;;20.92;11.85;;;14.10;63.20;;;;;;5022195;28;20092;-82
2022/03/22 09:43:15;;;;;;;19.77;11.50;;;14.10;63.70;;;;;;5045948;28;20056;-82
2022/03/22 09:45:48;;;;;;;18.58;11.82;;;14.40;61.50;;;;;;5017919;28;20132;-83
2022/03/22 09:48:47;;;;;;;17.77;11.68;;;14.20;60.50;;;;;;5044470;28;20033;-80
2022/03/22 09:51:45;;;;;;;20.48;11.77;;;14.50;62.10;;;;;;5042817;28;20101;-82
2022/03/22 09:54:13;;;;;;;17.98;11.52;;;16.10;59.60;;;;;;5041018;28;20061;-80
2022/03/22 09:57:04;;;;;;;19.17;11.82;;;14.20;57.20;;;;;;5026523;28;20065;-80
2022/03/22 09:59:35;;;;;;;18.10;11.20;;;15.00;58.30;;;;;;5030596;28;20099;-80
2022/03/22 10:02:09;;;;;;;19.35;11.75;;;14.40;56.60;;;;;;5046803;28;20061;-81
2022/03/22 10:04:48;;;;;;;16.05;10.95;;;15.30;56.30;;;;;;5032204;28;20021;-81
2022/03/22 10:07:23;;;;;;;20.00;12.52;;;16.00;56.00;;;;;;5048823;28;20033;-80
2022/03/22 10:10:07;;;;;;;19.33;11.68;;;14.30;55.20;;;;;;5033541;28;20136;-82
2022/03/22 10:13:00;;;;;;;19.33;11.10;;;15.50;55.30;;;;;;5046148;28;20049;-82
2022/03/22 10:15:43;;;;;;;18.30;11.35;;;15.60;54.30;;;;;;5034305;28;20044;-82
2022/03/22 10:18:13;;;;;;;16.98;11.30;;;15.40;53.00;;;;;;5028074;28;20025;-81
2022/03/22 10:20:41;;;;;;;17.40;11.57;;;15.90;54.40;;;;;;5044554;28;20029;-82
2022/03/22 10:23:11;;;;;;;17.33;10.82;;;15.50;53.40;;;;;;5038590;28;20784;-81
2022/03/22 10:25:44;;;;;;;17.83;10.90;;;13.60;52.00;;;;;;5040165;28;20038;-82
2022/03/22 10:28:14;;;;;;;17.00;11.20;;;15.70;53.00;;;;;;5021657;28;20038;-82
2022/03/22 10:30:57;;;;;;;15.77;10.85;;;15.50;52.90;;;;;;5024130;28;20034;-80
2022/03/22 10:33:27;;;;;;;14.32;9.73;;;15.50;52.20;;;;;;5038910;28;20061;-81
2022/03/22 10:36:00;;;;;;;16.65;11.10;;;15.80;50.60;;;;;;5022724;28;20046;-82
2022/03/22 10:39:08;;;;;;;17.38;10.68;;;15.90;50.60;;;;;;5044775;28;20045;-83
2022/03/22 10:41:42;;;;;;;14.20;10.02;;;16.30;50.20;;;;;;5558021;22;20012;-80
2022/03/22 10:44:23;;;;;;;20.73;10.52;;;16.20;50.30;;;;;;5036464;28;20077;-80
2022/03/22 10:46:52;;;;;;;14.68;9.90;;;16.30;48.50;;;;;;5039813;28;20089;-83
2022/03/22 10:49:22;;;;;;;16.35;10.30;;;18.40;50.70;;;;;;5052221;28;20468;-81
2022/03/22 10:51:56;;;;;;;20.63;10.48;;;16.30;48.80;;;;;;5040906;28;20081;-81
2022/03/22 10:54:25;;;;;;;16.92;11.20;;;16.10;49.50;;;;;;5039799;28;20022;-81
2022/03/22 10:57:06;;;;;;;18.27;11.35;;;19.70;50.00;;;;;;5232138;22;20035;-83
2022/03/22 10:59:32;;;;;;;;;;;14.40;48.40;;;;;;5016494;28;20030;-83
2022/03/22 11:02:06;;;;;;;17.08;10.88;;;16.00;49.10;;;;;;5000020;28;19910;-80
2022/03/22 11:04:44;;;;;;;16.27;10.27;;;15.20;50.20;;;;;;4998853;28;20320;-82
2022/03/22 11:07:37;;;;;;;23.52;10.65;;;16.00;48.70;;;;;;4995247;28;20038;-82
2022/03/22 11:10:44;;;;;;;16.45;10.90;;;16.30;49.60;;;;;;4999369;28;20049;-82
2022/03/22 11:13:52;;;;;;;18.85;11.10;;;16.70;48.90;;;;;;4978397;28;20125;-83
2022/03/22 11:16:59;;;;;;;17.83;10.68;;;16.90;48.80;;;;;;4999126;28;20045;-80
2022/03/22 11:20:01;;;;;;;19.42;11.05;;;16.40;48.60;;;;;;4999290;28;20057;-81
2022/03/22 11:22:54;;;;;;;15.45;10.40;;;15.40;45.60;;;;;;4987694;28;20026;-81
2022/03/22 11:25:39;;;;;;;15.82;11.13;;;16.40;46.70;;;;;;5005132;28;20042;-79
2022/03/22 11:28:19;;;;;;;15.50;10.73;;;16.80;45.70;;;;;;4993552;28;20367;-80
2022/03/22 11:30:52;;;;;;;17.67;11.63;;;16.70;46.10;;;;;;4998691;28;20130;-82
2022/03/22 11:36:20;;;;;;;16.23;11.07;;;15.70;46.00;;;;;;5007288;28;20088;-81
2022/03/22 11:38:57;;;;;;;19.85;10.95;;;;;;;;;;5007631;28;20033;-83
2022/03/22 11:42:20;;;;;;;21.83;10.95;;;;;;;;;;5010723;28;20014;-82
2022/03/22 11:45:05;;;;;;;17.55;10.63;;;17.40;45.10;;;;;;4954948;29;20027;-82
2022/03/22 11:47:47;;;;;;;20.05;11.35;;;17.50;45.40;;;;;;4927602;29;20027;-82
2022/03/22 11:50:21;;;;;;;17.48;11.23;;;16.80;44.90;;;;;;4939405;29;20055;-81
2022/03/22 11:53:01;;;;;;;15.55;10.52;;;;;;;;;;4977578;28;20042;-80
2022/03/22 11:55:35;;;;;;;17.63;12.15;;;17.10;44.80;;;;;;5001514;28;20033;-81
2022/03/22 11:58:09;;;;;;;16.67;11.27;;;17.20;45.50;;;;;;5016879;28;20023;-81
2022/03/22 12:01:01;;;;;;;16.73;11.10;;;17.00;44.70;;;;;;4999470;28;20037;-81
2022/03/22 12:03:35;;;;;;;19.02;11.82;;;17.30;46.40;;;;;;4996087;28;20034;-81
2022/03/22 12:06:16;;;;;;;17.80;11.18;;;17.60;46.20;;;;;;4981827;28;20094;-81
2022/03/22 12:08:45;;;;;;;17.42;11.40;;;17.00;46.20;;;;;;4999903;28;20031;-82
2022/03/22 12:11:19;;;;;;;16.42;11.88;;;17.10;46.00;;;;;;5014916;28;20034;-80
2022/03/22 12:13:49;;;;;;;17.77;11.70;;;17.50;45.20;;;;;;5015329;28;20057;-82
2022/03/22 12:16:15;;;;;;;16.88;11.45;;;;;;;;;;5005846;28;20053;-82
2022/03/22 12:18:44;;;;;;;18.67;11.85;;;17.30;44.10;;;;;;5013956;28;20352;-80
2022/03/22 12:21:23;;;;;;;16.13;10.88;;;15.50;45.00;;;;;;4998151;28;20022;-80
2022/03/22 12:23:52;;;;;;;17.17;11.60;;;;;;;;;;5016959;28;20502;-81
2022/03/22 12:26:28;;;;;;;18.73;12.32;;;17.50;43.50;;;;;;5015618;28;20026;-78
2022/03/22 12:28:57;;;;;;;17.48;12.27;;;17.10;44.60;;;;;;5002369;28;20026;-79
2022/03/22 12:31:23;;;;;;;19.15;12.23;;;17.40;44.70;;;;;;5000980;28;20030;-79
2022/03/22 12:33:58;;;;;;;17.85;12.07;;;17.90;42.90;;;;;;5001947;28;20061;-78
2022/03/22 12:36:32;;;;;;;14.73;10.95;;;17.40;46.00;;;;;;4999617;28;20041;-79
2022/03/22 12:39:01;;;;;;;19.00;12.52;;;;;;;;;;5001082;28;20042;-79
2022/03/22 12:41:27;;;;;;;17.38;11.68;;;17.80;42.80;;;;;;5002372;28;20526;-80
2022/03/22 12:43:54;;;;;;;16.25;11.43;;;17.60;42.60;;;;;;5002732;28;20038;-81
2022/03/22 12:51:36;;;;;;;15.57;10.55;;;17.70;43.70;;;;;;5062119;28;20048;-80
2022/03/22 12:54:17;;;;;;;17.73;11.57;;;20.20;44.30;;;;;;5046676;28;20048;-80
2022/03/22 12:56:49;;;;;;;16.13;10.65;;;17.90;43.90;;;;;;5046015;28;20127;-82
2022/03/22 13:02:46;;;;;;;15.43;10.60;;;18.50;43.00;;;;;;5067031;28;20027;-82
2022/03/22 13:05:31;;;;;;;19.17;11.75;;;18.30;40.80;;;;;;5048827;28;20038;-80
2022/03/22 13:07:58;;;;;;;17.40;11.43;;;;;;;;;;5033542;28;20035;-82
2022/03/22 13:16:43;;;;;;;19.27;10.90;;;18.30;41.30;;;;;;5042423;28;20058;-79
2022/03/22 13:19:10;;;;;;;18.17;11.25;;;;;;;;;;5043704;28;20473;-82
2022/03/22 13:21:56;;;;;;;15.43;10.80;;;18.10;40.90;;;;;;5039016;28;20386;-82
2022/03/22 13:24:37;;;;;;;15.25;10.10;;;18.00;40.70;;;;;;5039117;28;20041;-81
2022/03/22 13:27:10;;;;;;;16.27;11.02;;;18.20;41.20;;;;;;5056694;28;20041;-81
2022/03/22 13:30:01;;;;;;;14.10;9.90;;;18.40;39.70;;;;;;5040780;28;20431;-82
2022/03/22 13:32:46;;;;;;;15.30;10.40;;;;;;;;;;5041908;28;20037;-78
2022/03/22 13:35:17;;;;;;;14.43;10.27;;;18.30;39.80;;;;;;5039726;28;20034;-81
2022/03/22 13:38:07;;;;;;;19.65;11.38;;;18.30;40.90;;;;;;5043509;28;20375;-81
2022/03/22 13:41:11;;;;;;;14.57;11.00;;;18.40;40.40;;;;;;5045562;28;20090;-81
2022/03/22 13:44:03;;;;;;;15.13;10.52;;;18.30;40.80;;;;;;5057701;28;20044;-81
2022/03/22 13:46:29;;;;;;;14.80;10.55;;;;;;;;;;5041864;28;20071;-81
2022/03/22 13:49:23;;;;;;;16.27;10.68;;;18.20;40.90;;;;;;5054102;28;20113;-80
2022/03/22 13:52:29;;;;;;;16.50;10.77;;;18.40;41.00;;;;;;5056632;28;20414;-80
2022/03/22 13:55:50;;;;;;;14.75;10.50;;;18.70;40.40;;;;;;4997746;28;20042;-81
2022/03/22 13:58:47;;;;;;;14.73;9.98;;;18.70;39.80;;;;;;4991767;28;20034;-83
2022/03/22 14:01:26;;;;;;;15.32;10.18;;;18.40;39.80;;;;;;4910037;29;20554;-80
2022/03/22 14:04:05;;;;;;;18.63;11.02;;;18.60;40.30;;;;;;4924615;28;20045;-82
2022/03/22 14:06:40;;;;;;;14.88;9.95;;;18.80;39.70;;;;;;5035673;28;20046;-81
2022/03/22 14:09:36;;;;;;;20.13;10.43;;;18.90;39.10;;;;;;5039778;28;20099;-81
2022/03/22 14:12:29;;;;;;;14.70;10.00;;;19.00;39.00;;;;;;5041147;28;20090;-81
2022/03/22 14:15:13;;;;;;;23.65;10.10;;;18.90;38.40;;;;;;5054904;28;20059;-81
2022/03/22 14:17:51;;;;;;;13.43;9.52;;;18.80;38.30;;;;;;5055617;28;20409;-81